Time;durP1;ratioP1;P1;durP2;ratioP2;P2;SDS_P1;SDS_P2;PMS_P1;PMS_P2;Temp;Humidity;BMP_temperature;BMP_pressure;BME280_temperature;BME280_humidity;BME280_pressure;Samples;Min_cycle;Max_cycle;Signal;HPM_P1;HPM_P2
2021/08/09 00:02:27;;;;;;;3.80;1.60;;;16.80;93.70;;;;;;5074408;28;20458;-67
2021/08/09 00:04:55;;;;;;;3.53;1.30;;;16.80;93.80;;;;;;5074005;28;20478;-69
2021/08/09 00:07:25;;;;;;;2.30;1.43;;;16.80;94.00;;;;;;5074626;28;20790;-67
2021/08/09 00:10:15;;;;;;;4.63;1.37;;;16.80;94.00;;;;;;5074215;28;20436;-67
2021/08/09 00:13:13;;;;;;;2.50;1.57;;;16.80;94.00;;;;;;5074408;28;20483;-67
2021/08/09 00:15:40;;;;;;;2.30;1.20;;;16.80;94.00;;;;;;5073020;28;20432;-67
2021/08/09 00:18:21;;;;;;;1.83;1.17;;;16.80;94.00;;;;;;5074110;28;20444;-67
2021/08/09 00:20:54;;;;;;;2.77;1.60;;;16.80;94.00;;;;;;5073864;28;20448;-68
2021/08/09 00:23:23;;;;;;;3.00;1.27;;;16.80;94.10;;;;;;5074177;28;20463;-67
2021/08/09 00:25:52;;;;;;;5.67;1.60;;;16.80;94.10;;;;;;5073647;28;20463;-67
2021/08/09 00:28:23;;;;;;;2.60;1.20;;;16.80;94.10;;;;;;5074221;28;20447;-68
2021/08/09 00:31:10;;;;;;;2.63;1.50;;;16.80;94.10;;;;;;5072568;28;20444;-69
2021/08/09 00:34:19;;;;;;;5.00;1.17;;;16.80;94.10;;;;;;5071702;28;20439;-67
2021/08/09 00:36:50;;;;;;;3.10;1.20;;;16.80;94.20;;;;;;5073494;28;20493;-67
2021/08/09 00:39:31;;;;;;;5.40;1.40;;;16.80;94.40;;;;;;5073492;28;20438;-67
2021/08/09 00:42:05;;;;;;;2.70;1.37;;;16.80;94.30;;;;;;5073023;28;20800;-67
2021/08/09 00:44:32;;;;;;;4.23;1.40;;;16.80;94.30;;;;;;5073644;28;20463;-67
2021/08/09 00:46:59;;;;;;;4.63;1.43;;;16.80;94.30;;;;;;5072935;28;20515;-70
2021/08/09 00:49:58;;;;;;;5.40;1.50;;;16.80;94.40;;;;;;5072968;28;20436;-67
2021/08/09 00:52:29;;;;;;;6.30;1.23;;;16.80;94.50;;;;;;5072842;28;20833;-68
2021/08/09 00:55:08;;;;;;;4.00;1.70;;;16.70;94.50;;;;;;5073670;28;20498;-67
2021/08/09 00:57:39;;;;;;;2.70;1.53;;;16.70;94.60;;;;;;5073132;28;20779;-68
2021/08/09 01:00:13;;;;;;;2.10;1.33;;;16.70;94.90;;;;;;5073237;28;20805;-67
2021/08/09 01:02:43;;;;;;;3.07;1.30;;;16.70;94.90;;;;;;5072919;28;20436;-67
2021/08/09 01:05:13;;;;;;;3.20;1.00;;;16.70;94.90;;;;;;5071528;28;20436;-67
2021/08/09 01:08:06;;;;;;;5.30;1.30;;;16.60;95.00;;;;;;5073215;28;20926;-67
2021/08/09 01:10:46;;;;;;;4.20;1.40;;;16.70;95.10;;;;;;5072872;28;20438;-67
2021/08/09 01:13:24;;;;;;;2.33;1.43;;;16.60;94.90;;;;;;5072866;28;20490;-74
2021/08/09 01:15:58;;;;;;;3.70;1.30;;;16.60;95.00;;;;;;5053112;28;20441;-67
2021/08/09 01:18:44;;;;;;;1.80;1.20;;;16.60;95.20;;;;;;5053851;28;20440;-68
2021/08/09 01:21:11;;;;;;;2.30;1.10;;;16.60;95.20;;;;;;5072198;28;20598;-67
2021/08/09 01:23:53;;;;;;;5.00;1.87;;;16.60;95.30;;;;;;5072436;28;20923;-67
2021/08/09 01:26:37;;;;;;;4.23;1.30;;;16.60;95.20;;;;;;5072755;28;20467;-68
2021/08/09 01:29:26;;;;;;;4.20;1.53;;;16.50;95.20;;;;;;5072419;28;20432;-67
2021/08/09 01:32:01;;;;;;;5.70;2.23;;;16.50;95.20;;;;;;5072442;28;20491;-68
2021/08/09 01:34:48;;;;;;;4.90;2.57;;;16.50;95.20;;;;;;5072687;28;20431;-68
2021/08/09 01:37:24;;;;;;;3.10;1.90;;;16.50;95.30;;;;;;5070043;28;20460;-67
2021/08/09 01:39:56;;;;;;;2.90;1.57;;;16.50;95.30;;;;;;5072836;28;20443;-67
2021/08/09 01:42:23;;;;;;;3.50;1.50;;;16.50;95.30;;;;;;5072242;28;20436;-68
2021/08/09 01:44:52;;;;;;;2.70;1.57;;;16.50;95.40;;;;;;5072512;28;20436;-67
2021/08/09 01:47:19;;;;;;;2.63;1.40;;;16.40;95.30;;;;;;5072281;28;20482;-67
2021/08/09 01:52:54;;;;;;;2.87;1.60;;;16.40;95.40;;;;;;5071298;28;20511;-67
2021/08/09 01:55:22;;;;;;;3.73;1.80;;;16.50;95.60;;;;;;5071532;28;20439;-68
2021/08/09 01:58:18;;;;;;;3.50;1.43;;;16.50;95.70;;;;;;5072352;28;20435;-67
2021/08/09 02:00:51;;;;;;;4.40;1.40;;;16.50;95.70;;;;;;5051895;28;20528;-67
2021/08/09 02:03:20;;;;;;;2.50;1.77;;;16.50;95.70;;;;;;5061735;28;20471;-67
2021/08/09 02:06:08;;;;;;;3.17;1.37;;;16.50;95.70;;;;;;5072430;28;20569;-67
2021/08/09 02:08:43;;;;;;;4.40;1.70;;;16.40;95.70;;;;;;5073986;28;20452;-67
2021/08/09 02:11:16;;;;;;;4.77;1.47;;;16.40;95.80;;;;;;5075522;28;20477;-67
2021/08/09 02:13:50;;;;;;;4.40;1.70;;;16.40;95.90;;;;;;5076412;28;21116;-67
2021/08/09 02:16:28;;;;;;;3.10;1.30;;;16.40;95.90;;;;;;5076477;28;20481;-67
2021/08/09 02:19:06;;;;;;;1.93;1.33;;;16.40;96.30;;;;;;5075790;28;20444;-67
2021/08/09 02:22:19;;;;;;;2.40;1.83;;;16.40;95.90;;;;;;5076348;28;20925;-67
2021/08/09 02:25:21;;;;;;;2.73;1.50;;;16.40;95.90;;;;;;5056679;28;20515;-67
2021/08/09 02:27:59;;;;;;;2.20;1.40;;;16.30;95.90;;;;;;5076392;28;20440;-67
2021/08/09 02:30:54;;;;;;;5.40;1.50;;;16.30;96.10;;;;;;5075980;28;20443;-67
2021/08/09 02:33:32;;;;;;;3.10;1.43;;;16.30;96.10;;;;;;5076125;28;20563;-68
2021/08/09 02:36:03;;;;;;;1.90;1.23;;;16.30;96.10;;;;;;5075211;28;20439;-68
2021/08/09 02:38:36;;;;;;;2.30;1.50;;;16.30;96.10;;;;;;5076153;28;20428;-67
2021/08/09 02:41:21;;;;;;;2.57;1.47;;;16.30;96.30;;;;;;5075209;28;20922;-67
2021/08/09 02:44:01;;;;;;;3.93;1.70;;;16.30;96.30;;;;;;5075880;28;20455;-67
2021/08/09 02:46:30;;;;;;;2.87;1.60;;;16.30;96.10;;;;;;5075939;28;20443;-68
2021/08/09 02:49:11;;;;;;;4.97;1.60;;;16.30;96.10;;;;;;5075918;28;20461;-67
2021/08/09 02:51:39;;;;;;;3.67;2.07;;;16.30;96.20;;;;;;5075505;28;20440;-68
2021/08/09 02:54:15;;;;;;;2.43;1.50;;;16.30;96.20;;;;;;5075828;28;20432;-67
2021/08/09 02:56:42;;;;;;;2.17;1.40;;;16.30;96.30;;;;;;5074643;28;20440;-67
2021/08/09 02:59:33;;;;;;;2.63;1.90;;;16.30;96.40;;;;;;5075425;28;20436;-67
2021/08/09 03:02:08;;;;;;;2.00;1.40;;;16.30;96.50;;;;;;5066671;28;20459;-67
2021/08/09 03:04:38;;;;;;;3.40;1.57;;;16.30;96.50;;;;;;5055474;28;20498;-67
2021/08/09 03:07:27;;;;;;;5.23;2.00;;;16.30;96.50;;;;;;5060301;28;20468;-67
2021/08/09 03:09:55;;;;;;;3.43;1.40;;;16.30;96.40;;;;;;5055415;28;20461;-67
2021/08/09 03:12:27;;;;;;;2.40;1.70;;;16.20;96.20;;;;;;5062293;28;20486;-67
2021/08/09 03:14:56;;;;;;;2.57;1.73;;;16.20;96.30;;;;;;5075014;28;20450;-67
2021/08/09 03:17:23;;;;;;;2.00;1.43;;;16.20;96.30;;;;;;5075072;28;20483;-67
2021/08/09 03:19:52;;;;;;;8.40;3.47;;;16.20;96.50;;;;;;5075230;28;20443;-67
2021/08/09 03:22:19;;;;;;;4.60;2.20;;;16.20;96.50;;;;;;5074666;28;20434;-67
2021/08/09 03:24:46;;;;;;;9.80;3.60;;;16.20;96.60;;;;;;5074867;28;20878;-67
2021/08/09 03:27:14;;;;;;;6.03;2.67;;;16.20;96.60;;;;;;5074683;28;20436;-67
2021/08/09 03:29:41;;;;;;;6.90;3.00;;;16.20;96.70;;;;;;5074824;28;20796;-67
2021/08/09 03:32:09;;;;;;;5.23;2.90;;;16.20;96.70;;;;;;5074945;28;20475;-67
2021/08/09 03:34:38;;;;;;;5.80;3.50;;;16.20;96.70;;;;;;5074529;28;20495;-68
2021/08/09 03:37:07;;;;;;;3.53;2.27;;;16.10;96.70;;;;;;5074957;28;20450;-67
2021/08/09 03:39:38;;;;;;;9.67;2.80;;;16.10;96.90;;;;;;5074261;28;20466;-68
2021/08/09 03:42:05;;;;;;;3.33;2.50;;;16.10;96.80;;;;;;5074962;28;20501;-67
2021/08/09 03:44:33;;;;;;;3.90;2.00;;;16.10;96.70;;;;;;5074741;28;20439;-68
2021/08/09 03:47:00;;;;;;;3.30;1.73;;;16.10;96.80;;;;;;5074111;28;20941;-67
2021/08/09 03:49:27;;;;;;;3.40;1.83;;;16.10;96.90;;;;;;5074611;28;20436;-67
2021/08/09 03:51:55;;;;;;;3.83;2.00;;;16.10;96.90;;;;;;5074763;28;20796;-67
2021/08/09 03:54:27;;;;;;;3.00;1.80;;;16.00;96.90;;;;;;5074118;28;20472;-67
2021/08/09 03:56:57;;;;;;;3.27;2.20;;;16.00;96.90;;;;;;5074358;28;20447;-67
2021/08/09 03:59:27;;;;;;;3.93;2.73;;;16.00;96.90;;;;;;5073982;28;20490;-68
2021/08/09 04:01:54;;;;;;;3.40;2.10;;;16.00;97.00;;;;;;5074373;28;20482;-68
2021/08/09 04:04:24;;;;;;;8.23;3.27;;;15.90;97.00;;;;;;5074695;28;20435;-67
2021/08/09 04:06:51;;;;;;;3.90;2.10;;;15.90;97.10;;;;;;5073937;28;20974;-67
2021/08/09 04:09:20;;;;;;;3.53;2.50;;;15.90;96.90;;;;;;5074513;28;20432;-67
2021/08/09 04:11:49;;;;;;;4.97;2.07;;;15.90;96.80;;;;;;5073884;28;20432;-68
2021/08/09 04:14:18;;;;;;;3.83;2.03;;;15.90;97.00;;;;;;5074707;28;20432;-67
2021/08/09 04:16:47;;;;;;;2.87;1.63;;;15.90;97.10;;;;;;5074073;28;20440;-67
2021/08/09 04:19:14;;;;;;;4.90;1.77;;;15.90;97.10;;;;;;5073715;28;20481;-68
2021/08/09 04:21:41;;;;;;;2.40;1.50;;;15.90;97.10;;;;;;5074437;28;20428;-67
2021/08/09 04:24:10;;;;;;;3.90;1.20;;;16.00;97.10;;;;;;5072724;28;21305;-69
2021/08/09 04:26:37;;;;;;;4.83;2.43;;;15.90;96.80;;;;;;5071913;28;20468;-67
2021/08/09 04:29:06;;;;;;;4.30;1.97;;;16.00;96.80;;;;;;5072644;28;20845;-68
2021/08/09 04:31:40;;;;;;;4.00;1.97;;;15.90;96.80;;;;;;5073537;28;20439;-67
2021/08/09 04:34:07;;;;;;;3.47;1.70;;;16.00;97.00;;;;;;5073666;28;20507;-68
2021/08/09 04:36:37;;;;;;;7.60;1.77;;;16.00;96.90;;;;;;5073382;28;20440;-67
2021/08/09 04:39:04;;;;;;;2.47;1.50;;;16.00;96.90;;;;;;5073567;28;20513;-67
2021/08/09 04:41:49;;;;;;;3.10;2.13;;;16.00;96.80;;;;;;5073804;28;20440;-68
2021/08/09 04:44:17;;;;;;;4.00;1.90;;;15.90;96.90;;;;;;5073071;28;20443;-67
2021/08/09 04:46:45;;;;;;;2.57;1.80;;;15.90;96.80;;;;;;5073828;28;20440;-67
2021/08/09 04:49:12;;;;;;;3.60;1.70;;;16.00;97.00;;;;;;5073449;28;20436;-67
2021/08/09 04:51:39;;;;;;;3.93;2.30;;;16.00;96.90;;;;;;5072934;28;20846;-67
2021/08/09 04:54:08;;;;;;;3.10;1.50;;;16.00;97.00;;;;;;5073225;28;20475;-68
2021/08/09 04:56:37;;;;;;;2.40;1.57;;;16.10;97.00;;;;;;5073569;28;20517;-67
2021/08/09 04:59:09;;;;;;;3.23;1.80;;;16.20;97.20;;;;;;5073336;28;20818;-67
2021/08/09 05:01:38;;;;;;;3.87;2.40;;;16.20;97.10;;;;;;5073458;28;20523;-67
2021/08/09 05:04:05;;;;;;;4.87;2.20;;;16.30;97.60;;;;;;5073049;28;20802;-67
2021/08/09 05:06:34;;;;;;;4.03;1.70;;;16.40;97.20;;;;;;5072834;28;20444;-70
2021/08/09 05:09:01;;;;;;;2.73;1.90;;;16.50;97.00;;;;;;5053396;28;20763;-68
2021/08/09 05:11:28;;;;;;;6.53;2.37;;;16.50;96.80;;;;;;5069547;28;20527;-68
2021/08/09 05:13:56;;;;;;;2.07;1.23;;;16.60;96.70;;;;;;5073160;28;20479;-67
2021/08/09 05:16:24;;;;;;;3.93;1.40;;;16.70;96.70;;;;;;5072250;28;20763;-67
2021/08/09 05:18:55;;;;;;;2.13;1.33;;;16.70;96.70;;;;;;5072636;28;20497;-67
2021/08/09 05:21:28;;;;;;;5.40;1.50;;;16.70;96.80;;;;;;5073228;28;20440;-68
2021/08/09 05:23:55;;;;;;;2.30;1.47;;;16.90;96.80;;;;;;5072670;28;20436;-67
2021/08/09 05:26:22;;;;;;;6.03;1.50;;;16.90;96.60;;;;;;5072947;28;20475;-67
2021/08/09 05:28:49;;;;;;;2.03;1.50;;;17.00;96.40;;;;;;5072029;28;20424;-67
2021/08/09 05:31:16;;;;;;;2.77;1.50;;;17.10;96.40;;;;;;5072762;28;20432;-68
2021/08/09 05:33:44;;;;;;;2.30;1.30;;;17.10;96.10;;;;;;5072715;28;20483;-69
2021/08/09 05:36:12;;;;;;;6.57;1.53;;;17.20;95.80;;;;;;5072720;28;20479;-67
2021/08/09 05:38:40;;;;;;;12.73;1.77;;;17.20;95.70;;;;;;5071784;28;20519;-68
2021/08/09 05:41:07;;;;;;;3.37;1.40;;;17.30;95.60;;;;;;5072629;28;20432;-69
2021/08/09 05:43:37;;;;;;;2.63;1.63;;;17.20;95.60;;;;;;5071283;28;20542;-67
2021/08/09 05:46:05;;;;;;;5.13;1.57;;;17.20;95.60;;;;;;5072021;28;20440;-67
2021/08/09 05:48:33;;;;;;;2.97;1.73;;;17.10;95.50;;;;;;5072799;28;20432;-67
2021/08/09 05:51:00;;;;;;;3.00;2.10;;;17.10;95.60;;;;;;5069202;28;20448;-69
2021/08/09 05:53:30;;;;;;;6.17;2.27;;;17.10;95.60;;;;;;5068036;28;20476;-69
2021/08/09 05:55:57;;;;;;;2.30;1.40;;;17.10;95.60;;;;;;5070060;28;20443;-69
2021/08/09 05:58:28;;;;;;;2.47;1.47;;;17.10;95.40;;;;;;5070267;28;20440;-69
2021/08/09 06:00:56;;;;;;;2.80;1.80;;;17.20;95.20;;;;;;5070058;28;20992;-68
2021/08/09 06:03:23;;;;;;;4.03;2.17;;;17.10;95.30;;;;;;5070384;28;20485;-68
2021/08/09 06:05:54;;;;;;;3.87;1.90;;;17.20;95.50;;;;;;5070272;28;20440;-69
2021/08/09 06:08:24;;;;;;;2.40;1.63;;;17.20;95.60;;;;;;5070941;28;20444;-68
2021/08/09 06:10:52;;;;;;;3.40;1.80;;;17.20;94.90;;;;;;5070977;28;20428;-68
2021/08/09 06:13:21;;;;;;;4.43;1.83;;;17.30;95.60;;;;;;5070648;28;20484;-69
2021/08/09 06:15:49;;;;;;;3.10;1.77;;;17.30;94.70;;;;;;5072298;28;20459;-68
2021/08/09 06:18:26;;;;;;;4.90;2.10;;;17.40;94.70;;;;;;5071878;28;20447;-73
2021/08/09 06:20:54;;;;;;;3.30;1.90;;;17.40;94.10;;;;;;5056752;28;20432;-69
2021/08/09 06:23:21;;;;;;;2.90;1.80;;;17.40;93.40;;;;;;5071690;28;20953;-68
2021/08/09 06:25:48;;;;;;;2.93;1.77;;;17.40;94.00;;;;;;5071206;28;20478;-72
2021/08/09 06:28:17;;;;;;;4.90;2.40;;;17.50;94.40;;;;;;5071010;28;20471;-68
2021/08/09 06:30:44;;;;;;;5.30;2.10;;;17.60;94.40;;;;;;5071549;28;20451;-68
2021/08/09 06:33:11;;;;;;;7.30;1.27;;;17.70;94.10;;;;;;5071755;28;20463;-68
2021/08/09 06:35:38;;;;;;;3.23;1.70;;;17.80;94.00;;;;;;5069643;28;20436;-68
2021/08/09 06:38:06;;;;;;;2.33;1.57;;;17.80;93.90;;;;;;5071519;28;20529;-69
2021/08/09 06:40:34;;;;;;;3.23;1.43;;;17.90;94.00;;;;;;5071381;28;20782;-68
2021/08/09 06:43:02;;;;;;;3.93;1.70;;;18.10;94.10;;;;;;5071704;28;20460;-69
2021/08/09 06:45:31;;;;;;;5.60;2.00;;;18.20;94.00;;;;;;5067752;28;20439;-69
2021/08/09 06:47:59;;;;;;;3.50;1.70;;;18.30;94.00;;;;;;5070537;28;20944;-69
2021/08/09 06:50:26;;;;;;;3.53;1.83;;;18.30;93.70;;;;;;5069602;28;20441;-69
2021/08/09 06:52:53;;;;;;;3.40;1.53;;;18.40;93.70;;;;;;5071863;28;20440;-68
2021/08/09 06:55:20;;;;;;;3.80;1.60;;;18.50;93.30;;;;;;5075306;28;20490;-69
2021/08/09 06:57:46;;;;;;;2.27;1.50;;;18.60;93.20;;;;;;5076206;28;20483;-71
2021/08/09 07:00:14;;;;;;;2.90;1.50;;;18.70;93.10;;;;;;5076035;28;20468;-68
2021/08/09 07:02:42;;;;;;;2.53;1.80;;;18.80;93.00;;;;;;5076326;28;20515;-68
2021/08/09 07:05:10;;;;;;;2.23;1.43;;;18.90;92.90;;;;;;5076194;28;20472;-68
2021/08/09 07:07:38;;;;;;;3.00;1.73;;;19.10;92.90;;;;;;5076132;28;21042;-68
2021/08/09 07:10:06;;;;;;;2.73;1.47;;;19.20;93.00;;;;;;5076263;28;20567;-68
2021/08/09 07:12:33;;;;;;;2.70;1.47;;;19.30;92.80;;;;;;5076002;28;20527;-69
2021/08/09 07:15:00;;;;;;;6.17;1.70;;;19.40;92.50;;;;;;5075943;28;20567;-69
2021/08/09 07:17:27;;;;;;;2.63;1.47;;;19.50;91.60;;;;;;5076122;28;20515;-69
2021/08/09 07:19:55;;;;;;;3.63;1.60;;;19.60;92.10;;;;;;5076166;28;20521;-69
2021/08/09 07:22:22;;;;;;;2.33;1.20;;;19.70;92.20;;;;;;5075873;28;20914;-68
2021/08/09 07:24:52;;;;;;;2.33;1.30;;;19.90;92.10;;;;;;5075902;28;21006;-69
2021/08/09 07:27:19;;;;;;;4.50;1.80;;;20.00;91.90;;;;;;5075931;28;21026;-69
2021/08/09 07:29:50;;;;;;;2.43;1.60;;;20.10;91.60;;;;;;5075890;28;20522;-69
2021/08/09 07:32:17;;;;;;;4.53;1.60;;;20.30;91.90;;;;;;5075737;28;20440;-68
2021/08/09 07:34:46;;;;;;;3.67;1.27;;;20.40;90.90;;;;;;5075514;28;20905;-68
2021/08/09 07:37:14;;;;;;;2.60;1.43;;;20.50;88.90;;;;;;5075763;28;20443;-69
2021/08/09 07:39:41;;;;;;;3.50;1.20;;;20.70;90.20;;;;;;5075708;28;20463;-69
2021/08/09 07:42:09;;;;;;;2.37;1.53;;;20.80;88.70;;;;;;5075583;28;20509;-68
2021/08/09 07:44:38;;;;;;;3.30;1.63;;;20.90;89.80;;;;;;5075486;28;20918;-69
2021/08/09 07:47:15;;;;;;;2.80;0.90;;;21.10;88.70;;;;;;5073134;28;20467;-69
2021/08/09 07:49:57;;;;;;;6.03;1.60;;;21.30;86.90;;;;;;5075429;28;20436;-68
2021/08/09 07:52:26;;;;;;;6.60;1.50;;;21.40;84.50;;;;;;5073588;28;20468;-69
2021/08/09 07:54:53;;;;;;;4.10;0.90;;;21.60;86.00;;;;;;5075027;28;20973;-69
2021/08/09 07:57:20;;;;;;;2.80;1.57;;;21.80;84.30;;;;;;5075241;28;20440;-69
2021/08/09 07:59:47;;;;;;;3.83;1.80;;;22.00;82.90;;;;;;5054924;28;20483;-69
2021/08/09 08:02:14;;;;;;;3.40;1.03;;;22.20;82.60;;;;;;5066886;28;20439;-69
2021/08/09 08:04:43;;;;;;;3.10;1.30;;;22.40;80.50;;;;;;5074591;28;20471;-69
2021/08/09 08:07:14;;;;;;;4.37;1.43;;;22.50;81.00;;;;;;5074480;28;20949;-68
2021/08/09 08:09:43;;;;;;;2.90;1.40;;;22.70;78.90;;;;;;5074834;28;20458;-70
2021/08/09 08:12:10;;;;;;;3.13;1.37;;;22.90;75.00;;;;;;5058059;28;20798;-69
2021/08/09 08:14:37;;;;;;;3.70;1.30;;;23.00;74.20;;;;;;5054336;28;20484;-69
2021/08/09 08:17:04;;;;;;;3.97;1.40;;;23.20;74.70;;;;;;5054673;28;20950;-69
2021/08/09 08:19:31;;;;;;;4.00;1.10;;;23.40;72.00;;;;;;5054764;28;20512;-69
2021/08/09 08:21:58;;;;;;;4.07;1.20;;;23.60;74.30;;;;;;5054705;28;20498;-69
2021/08/09 08:24:27;;;;;;;3.50;1.30;;;23.90;74.20;;;;;;5054685;28;20850;-69
2021/08/09 08:26:56;;;;;;;1.97;0.87;;;24.20;71.50;;;;;;5063822;28;20473;-68
2021/08/09 08:29:23;;;;;;;2.83;0.93;;;24.40;69.60;;;;;;5074271;28;20865;-67
2021/08/09 08:31:52;;;;;;;4.27;1.13;;;24.60;70.30;;;;;;5073582;28;20809;-67
2021/08/09 08:34:23;;;;;;;3.37;1.30;;;24.90;71.10;;;;;;5073315;28;20583;-71
2021/08/09 08:36:55;;;;;;;3.77;1.23;;;25.10;66.70;;;;;;5073879;28;20852;-66
2021/08/09 08:39:23;;;;;;;2.60;1.40;;;25.40;68.40;;;;;;5073708;28;20574;-67
2021/08/09 08:41:53;;;;;;;2.57;1.23;;;25.60;66.50;;;;;;5073736;28;20473;-66
2021/08/09 08:44:27;;;;;;;2.43;1.13;;;25.90;64.00;;;;;;5073572;28;20455;-66
2021/08/09 08:46:57;;;;;;;2.20;0.93;;;26.00;63.80;;;;;;5073702;28;20927;-66
2021/08/09 08:49:25;;;;;;;2.60;1.30;;;26.10;59.60;;;;;;5073808;28;20443;-67
2021/08/09 08:51:53;;;;;;;3.20;1.20;;;26.10;58.80;;;;;;5073614;28;20966;-66
2021/08/09 08:54:22;;;;;;;3.37;1.10;;;26.10;60.50;;;;;;5073362;28;20574;-67
2021/08/09 08:56:52;;;;;;;2.90;1.13;;;26.20;57.70;;;;;;5073362;28;20439;-66
2021/08/09 08:59:19;;;;;;;2.50;1.40;;;26.30;58.50;;;;;;5073192;28;20491;-66
2021/08/09 09:01:49;;;;;;;4.93;1.50;;;26.50;59.40;;;;;;5073090;28;20497;-69
2021/08/09 09:04:24;;;;;;;2.10;1.03;;;26.60;58.20;;;;;;5073033;28;20429;-70
2021/08/09 09:07:00;;;;;;;2.57;1.23;;;26.60;58.40;;;;;;5073452;28;20439;-69
2021/08/09 09:09:40;;;;;;;3.53;1.20;;;26.80;57.20;;;;;;5073327;28;20440;-70
2021/08/09 09:12:14;;;;;;;4.00;1.63;;;26.90;56.10;;;;;;5072967;28;20439;-69
2021/08/09 09:15:02;;;;;;;3.93;1.00;;;27.00;54.40;;;;;;5073058;28;20490;-66
2021/08/09 09:17:35;;;;;;;2.13;1.23;;;27.00;54.30;;;;;;5072772;28;20919;-67
2021/08/09 09:20:22;;;;;;;2.10;0.97;;;27.00;55.30;;;;;;5072769;28;20530;-67
2021/08/09 09:23:12;;;;;;;5.03;1.50;;;27.10;54.30;;;;;;5072605;28;20444;-67
2021/08/09 09:25:39;;;;;;;2.83;1.00;;;27.20;54.60;;;;;;5073028;28;20464;-67
2021/08/09 09:28:22;;;;;;;2.93;1.50;;;27.30;54.40;;;;;;5073355;28;20493;-67
2021/08/09 09:30:57;;;;;;;3.00;1.00;;;27.40;54.60;;;;;;5071558;28;20529;-69
2021/08/09 09:33:25;;;;;;;4.83;1.10;;;27.50;52.80;;;;;;5073474;28;20476;-69
2021/08/09 09:35:58;;;;;;;2.17;1.10;;;27.60;53.00;;;;;;5073454;28;20595;-69
2021/08/09 09:38:26;;;;;;;2.80;0.80;;;27.80;53.80;;;;;;5073535;28;20520;-69
2021/08/09 09:41:07;;;;;;;2.93;1.20;;;28.00;51.40;;;;;;5073249;28;20501;-69
2021/08/09 09:43:39;;;;;;;2.90;1.23;;;28.20;50.60;;;;;;5073111;28;20434;-69
2021/08/09 09:46:07;;;;;;;3.73;1.07;;;28.50;51.40;;;;;;5073263;28;20439;-69
2021/08/09 09:48:39;;;;;;;3.47;1.40;;;28.70;48.50;;;;;;5073098;28;20825;-69
2021/08/09 09:51:12;;;;;;;3.33;1.47;;;28.80;47.90;;;;;;5073323;28;20446;-69
2021/08/09 09:53:39;;;;;;;2.83;1.13;;;28.90;47.10;;;;;;5073366;28;20526;-69
2021/08/09 09:56:07;;;;;;;2.97;1.23;;;29.00;45.70;;;;;;5073276;28;20481;-69
2021/08/09 09:58:36;;;;;;;3.27;1.30;;;29.00;45.60;;;;;;5073121;28;20470;-68
2021/08/09 10:01:08;;;;;;;2.70;1.30;;;28.90;44.20;;;;;;5072964;28;20462;-69
2021/08/09 10:03:42;;;;;;;2.70;1.27;;;28.90;44.50;;;;;;5073185;28;20466;-69
2021/08/09 10:06:17;;;;;;;2.37;1.13;;;29.00;45.60;;;;;;5072892;28;20483;-68
2021/08/09 10:08:55;;;;;;;4.10;1.87;;;29.10;45.70;;;;;;5073083;28;20435;-68
2021/08/09 10:11:27;;;;;;;2.23;1.13;;;29.30;45.20;;;;;;5072133;28;20530;-69
2021/08/09 10:13:56;;;;;;;4.17;1.23;;;29.40;44.70;;;;;;5072941;28;20512;-68
2021/08/09 10:16:31;;;;;;;4.23;1.20;;;29.60;45.90;;;;;;5070758;28;20449;-69
2021/08/09 10:19:02;;;;;;;5.60;1.57;;;29.60;45.30;;;;;;5072204;28;20529;-71
2021/08/09 10:21:31;;;;;;;4.63;2.03;;;29.60;44.40;;;;;;5072088;28;20440;-69
2021/08/09 10:24:00;;;;;;;4.40;1.30;;;29.60;44.60;;;;;;5072381;28;20439;-69
2021/08/09 10:26:46;;;;;;;2.30;1.13;;;29.60;43.10;;;;;;5072053;28;20506;-70
2021/08/09 10:29:13;;;;;;;3.17;1.50;;;29.60;42.10;;;;;;5074368;28;20439;-69
2021/08/09 10:31:45;;;;;;;2.30;1.30;;;29.60;43.90;;;;;;5076033;28;20514;-68
2021/08/09 10:34:33;;;;;;;4.30;1.70;;;29.60;45.10;;;;;;5076362;28;20483;-68
2021/08/09 10:37:10;;;;;;;2.73;1.30;;;29.60;43.10;;;;;;5075688;28;20442;-70
2021/08/09 10:39:56;;;;;;;2.10;1.40;;;29.70;44.10;;;;;;5075845;28;20442;-69
2021/08/09 10:42:40;;;;;;;4.50;1.30;;;29.60;43.80;;;;;;5075615;28;20788;-68
2021/08/09 10:45:10;;;;;;;3.53;1.60;;;29.60;43.70;;;;;;5076444;28;20427;-68
2021/08/09 10:47:57;;;;;;;3.70;1.30;;;29.60;43.70;;;;;;5076507;28;20436;-68
2021/08/09 10:50:53;;;;;;;3.40;1.30;;;29.60;43.50;;;;;;5076301;28;20439;-70
2021/08/09 10:53:47;;;;;;;4.23;1.60;;;29.70;44.60;;;;;;5076506;28;20434;-69
2021/08/09 10:56:47;;;;;;;3.20;1.50;;;29.80;45.80;;;;;;5062761;28;20553;-69
2021/08/09 10:59:45;;;;;;;4.50;2.00;;;29.60;45.10;;;;;;5013982;28;20434;-68
2021/08/09 11:02:22;;;;;;;3.53;1.07;;;29.50;45.60;;;;;;5076360;28;20837;-68
2021/08/09 11:05:30;;;;;;;2.70;1.47;;;29.30;42.80;;;;;;5076308;28;20475;-68
2021/08/09 11:08:31;;;;;;;4.53;1.60;;;29.30;43.30;;;;;;5076199;28;20431;-69
2021/08/09 11:10:59;;;;;;;4.03;1.60;;;29.10;43.10;;;;;;5076082;28;20436;-68
2021/08/09 11:13:27;;;;;;;3.00;1.10;;;28.90;42.40;;;;;;5076228;28;20431;-69
2021/08/09 11:15:58;;;;;;;2.77;1.10;;;28.80;44.60;;;;;;5075875;28;20490;-68
2021/08/09 11:18:29;;;;;;;1.90;1.10;;;28.80;43.40;;;;;;5075965;28;20913;-69
2021/08/09 11:21:02;;;;;;;2.23;1.30;;;28.70;45.10;;;;;;5075813;28;20471;-69
2021/08/09 11:23:37;;;;;;;2.83;1.40;;;28.60;44.70;;;;;;5075784;28;20526;-69
2021/08/09 11:26:20;;;;;;;2.20;0.97;;;28.50;45.60;;;;;;5075688;28;20463;-69
2021/08/09 11:28:57;;;;;;;2.60;1.20;;;28.50;45.90;;;;;;5075908;28;20443;-68
2021/08/09 11:31:45;;;;;;;5.80;1.63;;;28.40;45.50;;;;;;5075684;28;20501;-69
2021/08/09 11:34:17;;;;;;;2.00;1.20;;;28.30;44.70;;;;;;5075346;28;20434;-69
2021/08/09 11:36:44;;;;;;;2.70;1.30;;;28.40;46.50;;;;;;5075731;28;20821;-69
2021/08/09 11:39:13;;;;;;;3.00;1.23;;;28.50;45.00;;;;;;5075429;28;20442;-66
2021/08/09 11:41:55;;;;;;;3.50;1.70;;;28.60;44.90;;;;;;5073908;28;20448;-66
2021/08/09 11:44:26;;;;;;;5.80;2.27;;;28.70;46.30;;;;;;5075522;28;20534;-66
2021/08/09 11:46:53;;;;;;;4.40;1.70;;;28.70;45.30;;;;;;5075603;28;20522;-70
2021/08/09 11:49:22;;;;;;;2.47;1.13;;;28.60;44.40;;;;;;5075013;28;20497;-69
2021/08/09 11:51:59;;;;;;;2.90;1.10;;;28.60;44.40;;;;;;5073881;28;20436;-69
2021/08/09 11:54:39;;;;;;;2.40;1.37;;;28.50;44.80;;;;;;5075309;28;20443;-70
2021/08/09 11:57:06;;;;;;;4.73;1.40;;;28.50;44.90;;;;;;5075441;28;20519;-66
2021/08/09 11:59:39;;;;;;;2.53;1.33;;;28.30;45.30;;;;;;5075520;28;20861;-67
2021/08/09 12:02:07;;;;;;;2.10;1.10;;;28.20;44.70;;;;;;5075339;28;20778;-69
2021/08/09 12:04:43;;;;;;;3.60;1.40;;;28.10;45.70;;;;;;5075026;28;20447;-71
2021/08/09 12:07:18;;;;;;;2.20;1.60;;;28.10;46.00;;;;;;5075100;28;20513;-67
2021/08/09 12:09:47;;;;;;;3.40;1.10;;;28.20;44.90;;;;;;5074800;28;20443;-67
2021/08/09 12:12:16;;;;;;;4.33;1.60;;;28.20;44.70;;;;;;5075026;28;20909;-67
2021/08/09 12:14:44;;;;;;;2.80;1.60;;;28.10;41.70;;;;;;5074685;28;20471;-66
2021/08/09 12:17:17;;;;;;;2.63;1.13;;;28.00;44.10;;;;;;5074619;28;20526;-66
2021/08/09 12:19:45;;;;;;;5.03;1.70;;;28.00;46.40;;;;;;5074844;28;20519;-66
2021/08/09 12:22:17;;;;;;;5.47;1.50;;;27.90;46.50;;;;;;5074910;28;20523;-66
2021/08/09 12:25:02;;;;;;;1.70;0.90;;;27.90;45.70;;;;;;5074591;28;20524;-67
2021/08/09 12:27:31;;;;;;;3.70;1.77;;;27.80;44.90;;;;;;5074414;28;20519;-66
2021/08/09 12:30:07;;;;;;;7.67;3.40;;;27.80;45.90;;;;;;5074386;28;20536;-67
2021/08/09 12:32:39;;;;;;;26.57;13.17;;;27.80;44.00;;;;;;5074307;28;20526;-66
2021/08/09 12:35:08;;;;;;;10.10;2.73;;;27.80;44.40;;;;;;5074272;28;20576;-67
2021/08/09 12:37:37;;;;;;;4.93;1.23;;;27.80;43.00;;;;;;5074326;28;20979;-66
2021/08/09 12:40:12;;;;;;;3.70;1.23;;;27.70;44.40;;;;;;5074282;28;20788;-66
2021/08/09 12:42:41;;;;;;;2.80;1.53;;;27.60;44.40;;;;;;5074083;28;20474;-66
2021/08/09 12:45:17;;;;;;;3.30;1.33;;;27.50;45.80;;;;;;5074409;28;20444;-66
2021/08/09 12:47:52;;;;;;;2.50;1.33;;;27.50;45.90;;;;;;5074232;28;20855;-67
2021/08/09 12:50:19;;;;;;;3.57;1.53;;;27.40;49.40;;;;;;5074112;28;21384;-66
2021/08/09 12:52:52;;;;;;;4.73;1.33;;;27.40;50.80;;;;;;5073772;28;20517;-66
2021/08/09 12:55:19;;;;;;;3.43;1.57;;;27.20;48.50;;;;;;5074067;28;20486;-66
2021/08/09 12:57:51;;;;;;;7.20;2.10;;;27.10;50.10;;;;;;5074155;28;20462;-66
2021/08/09 13:00:19;;;;;;;6.43;1.50;;;27.20;49.20;;;;;;5074247;28;20466;-66
2021/08/09 13:02:47;;;;;;;3.67;1.63;;;27.20;50.70;;;;;;5073909;28;20526;-67
2021/08/09 13:05:14;;;;;;;2.20;1.37;;;27.30;51.90;;;;;;5073815;28;20436;-66
2021/08/09 13:07:43;;;;;;;3.20;1.27;;;27.40;51.50;;;;;;5073691;28;20985;-66
2021/08/09 13:10:11;;;;;;;2.40;1.30;;;27.40;52.00;;;;;;5073886;28;20522;-67
2021/08/09 13:12:38;;;;;;;4.90;1.43;;;27.40;51.90;;;;;;5073749;28;20519;-67
2021/08/09 13:15:08;;;;;;;4.30;1.10;;;27.50;50.80;;;;;;5073519;28;20473;-66
2021/08/09 13:17:36;;;;;;;5.33;1.90;;;27.50;49.60;;;;;;5073332;28;20436;-66